createdAt,value
2017-08-07T00:00:06.982Z,45.9
2017-08-07T00:01:08.779Z,45.8
2017-08-07T00:02:10.908Z,45.9
2017-08-07T00:03:12.369Z,45.8
2017-08-07T00:04:13.832Z,45.7
2017-08-07T00:05:15.964Z,46.1
2017-08-07T00:06:18.094Z,46.1
2017-08-07T00:07:20.228Z,45.8
2017-08-07T00:08:22.356Z,46
2017-08-07T00:09:24.136Z,45.8
2017-08-07T00:10:25.936Z,46.1
2017-08-07T00:11:28.066Z,45.8
2017-08-07T00:12:29.842Z,45.9
2017-08-07T00:13:31.642Z,46
2017-08-07T00:14:33.109Z,45.8
2017-08-07T00:15:35.243Z,46
2017-08-07T00:16:37.377Z,46
2017-08-07T00:17:39.508Z,46.1
2017-08-07T00:18:41.289Z,46.1
2017-08-07T00:19:42.734Z,45.7
2017-08-07T00:20:44.865Z,45.7
2017-08-07T00:21:47.000Z,45.7
2017-08-07T00:22:49.131Z,46.1
2017-08-07T00:23:50.929Z,45.8
2017-08-07T00:24:52.726Z,46
2017-08-07T00:25:54.860Z,45.8
2017-08-07T00:26:56.636Z,45.6
2017-08-07T00:27:58.773Z,45.7
2017-08-07T00:29:00.234Z,45.9
2017-08-07T00:30:02.033Z,46
2017-08-07T00:31:03.472Z,45.8
2017-08-07T00:32:05.268Z,45.8
2017-08-07T00:33:07.063Z,46
2017-08-07T00:34:09.194Z,46
2017-08-07T00:35:11.324Z,45.9
2017-08-07T00:36:13.453Z,45.7
2017-08-07T00:37:15.250Z,45.9
2017-08-07T00:38:16.718Z,45.7
2017-08-07T00:39:18.848Z,45.9
2017-08-07T00:40:20.645Z,45.9
2017-08-07T00:41:22.124Z,45.7
2017-08-07T00:42:24.252Z,45.9
2017-08-07T00:43:26.027Z,45.6
2017-08-07T00:44:27.826Z,45.7
2017-08-07T00:45:28.934Z,45.9
2017-08-07T00:46:31.066Z,46
2017-08-07T00:47:32.536Z,45.7
2017-08-07T00:48:34.667Z,45.6
2017-08-07T00:49:36.800Z,45.9
2017-08-07T00:50:38.601Z,46
2017-08-07T00:51:40.399Z,46.1
2017-08-07T00:52:42.528Z,46
2017-08-07T00:53:43.971Z,45.7
2017-08-07T00:54:46.107Z,45.9
2017-08-07T00:55:48.237Z,46
2017-08-07T00:56:50.368Z,46.1
2017-08-07T00:57:52.551Z,46.1
2017-08-07T00:58:54.683Z,45.9
2017-08-07T00:59:56.816Z,46
2017-08-07T01:00:58.614Z,45.9
2017-08-07T01:02:00.056Z,45.7
2017-08-07T01:03:01.854Z,45.7
2017-08-07T01:04:03.977Z,46.1
2017-08-07T01:05:06.106Z,46
2017-08-07T01:06:08.237Z,45.9
2017-08-07T01:07:09.707Z,45.8
2017-08-07T01:08:11.835Z,46.1
2017-08-07T01:09:13.304Z,45.9
2017-08-07T01:10:14.746Z,45.7
2017-08-07T01:11:15.873Z,46
2017-08-07T01:12:17.325Z,45.9
2017-08-07T01:13:19.123Z,46
2017-08-07T01:14:21.252Z,46.2
2017-08-07T01:15:22.696Z,46.2
2017-08-07T01:16:24.495Z,46
2017-08-07T01:17:26.293Z,45.6
2017-08-07T01:18:28.091Z,46
2017-08-07T01:19:29.910Z,46
2017-08-07T01:20:31.710Z,46
2017-08-07T01:21:33.853Z,46
2017-08-07T01:22:35.285Z,46.3
2017-08-07T01:23:36.732Z,46
2017-08-07T01:24:38.863Z,45.7
2017-08-07T01:25:40.664Z,45.9
2017-08-07T01:26:42.441Z,45.9
2017-08-07T01:27:44.576Z,46.2
2017-08-07T01:28:46.374Z,46.1
2017-08-07T01:29:47.818Z,46.2
2017-08-07T01:30:49.616Z,46.1
2017-08-07T01:31:51.749Z,46
2017-08-07T01:32:53.546Z,45.8
2017-08-07T01:33:55.677Z,46
2017-08-07T01:34:57.805Z,45.9
2017-08-07T01:35:59.939Z,45.8
2017-08-07T01:37:02.071Z,46
2017-08-07T01:38:04.205Z,46.2
2017-08-07T01:39:06.001Z,46.1
2017-08-07T01:40:07.443Z,45.8
2017-08-07T01:41:09.240Z,45.9
2017-08-07T01:42:10.705Z,46
2017-08-07T01:43:12.479Z,46
2017-08-07T01:44:14.277Z,45.6
2017-08-07T01:45:16.075Z,46
2017-08-07T01:46:18.207Z,45.8
2017-08-07T01:47:20.004Z,45.7
2017-08-07T01:48:21.801Z,46
2017-08-07T01:49:23.931Z,45.8
2017-08-07T01:50:26.061Z,45.7
2017-08-07T01:51:27.857Z,46
2017-08-07T01:52:29.323Z,46
2017-08-07T01:53:31.123Z,45.8
2017-08-07T01:54:33.253Z,45.7
2017-08-07T01:55:35.027Z,46.2
2017-08-07T01:56:37.157Z,45.9
2017-08-07T01:57:38.934Z,46
2017-08-07T01:58:41.063Z,45.9
2017-08-07T01:59:42.858Z,46.2
2017-08-07T02:00:44.991Z,46.3
2017-08-07T02:01:47.133Z,45.7
2017-08-07T02:02:48.933Z,46.1
2017-08-07T02:03:51.061Z,45.7
2017-08-07T02:04:52.871Z,45.9
2017-08-07T02:05:54.665Z,45.8
2017-08-07T02:06:56.794Z,45.8
2017-08-07T02:07:58.607Z,46
2017-08-07T02:09:00.737Z,45.7
2017-08-07T02:10:02.871Z,45.9
2017-08-07T02:11:05.004Z,46.1
2017-08-07T02:12:06.791Z,46
2017-08-07T02:13:08.921Z,45.8
2017-08-07T02:14:10.388Z,45.9
2017-08-07T02:15:12.182Z,45.8
2017-08-07T02:16:14.312Z,45.7
2017-08-07T02:17:16.088Z,45.8
2017-08-07T02:18:17.559Z,46
2017-08-07T02:19:19.337Z,45.7
2017-08-07T02:20:21.131Z,45.9
2017-08-07T02:21:23.262Z,45.7
2017-08-07T02:22:25.390Z,45.7
2017-08-07T02:23:26.870Z,46
2017-08-07T02:24:28.660Z,45.7
2017-08-07T02:25:30.487Z,46
2017-08-07T02:26:32.623Z,45.8
2017-08-07T02:27:34.062Z,45.6
2017-08-07T02:28:35.857Z,45.7
2017-08-07T02:29:37.326Z,46
2017-08-07T02:30:39.101Z,45.6
2017-08-07T02:31:41.231Z,46.1
2017-08-07T02:32:42.719Z,45.9
2017-08-07T02:33:44.497Z,45.8
2017-08-07T02:34:45.979Z,45.8
2017-08-07T02:35:47.792Z,45.7
2017-08-07T02:36:49.564Z,45.7
2017-08-07T02:37:51.340Z,45.7
2017-08-07T02:38:53.114Z,46
2017-08-07T02:39:54.910Z,45.6
2017-08-07T02:40:57.039Z,45.7
2017-08-07T02:41:59.169Z,45.7
2017-08-07T02:43:00.963Z,45.7
2017-08-07T02:44:03.097Z,46.1
2017-08-07T02:45:04.893Z,45.6
2017-08-07T02:46:06.362Z,45.8
2017-08-07T02:47:08.160Z,45.7
2017-08-07T02:48:10.294Z,46.1
2017-08-07T02:49:12.090Z,45.7
2017-08-07T02:50:13.886Z,45.6
2017-08-07T02:51:16.018Z,45.7
2017-08-07T02:52:17.813Z,45.6
2017-08-07T02:53:19.944Z,45.7
2017-08-07T02:54:21.394Z,45.6
2017-08-07T02:55:23.232Z,45.8
2017-08-07T02:56:25.036Z,45.7
2017-08-07T02:57:26.478Z,46
2017-08-07T02:58:28.677Z,46
2017-08-07T02:59:30.477Z,45.8
2017-08-07T03:00:31.919Z,46.1
2017-08-07T03:01:34.050Z,45.6
2017-08-07T03:02:36.180Z,45.6
2017-08-07T03:03:37.635Z,45.9
2017-08-07T03:04:39.432Z,45.8
2017-08-07T03:05:41.599Z,46
2017-08-07T03:06:43.397Z,45.8
2017-08-07T03:07:45.596Z,45.7
2017-08-07T03:08:47.726Z,45.6
2017-08-07T03:09:49.857Z,46
2017-08-07T03:10:51.655Z,45.6
2017-08-07T03:11:53.807Z,45.8
2017-08-07T03:12:55.954Z,45.6
2017-08-07T03:13:58.077Z,45.8
2017-08-07T03:14:59.876Z,45.6
2017-08-07T03:16:01.674Z,45.9
2017-08-07T03:17:03.447Z,45.8
2017-08-07T03:18:05.243Z,45.8
2017-08-07T03:19:07.375Z,45.9
2017-08-07T03:20:09.174Z,45.7
2017-08-07T03:21:10.661Z,45.6
2017-08-07T03:22:12.796Z,45.8
2017-08-07T03:23:14.236Z,45.6
2017-08-07T03:24:16.366Z,45.8
2017-08-07T03:25:18.496Z,45.8
2017-08-07T03:26:20.274Z,45.6
2017-08-07T03:27:21.735Z,45.6
2017-08-07T03:28:23.511Z,45.7
2017-08-07T03:29:25.639Z,45.8
2017-08-07T03:30:27.416Z,45.7
2017-08-07T03:31:28.551Z,45.6
2017-08-07T03:32:30.680Z,45.7
2017-08-07T03:33:32.812Z,45.9
2017-08-07T03:34:34.949Z,45.8
2017-08-07T03:35:36.718Z,45.7
2017-08-07T03:36:38.516Z,45.9
2017-08-07T03:37:39.961Z,45.8
2017-08-07T03:38:41.759Z,45.9
2017-08-07T03:39:43.560Z,45.9
2017-08-07T03:40:45.024Z,45.8
2017-08-07T03:41:47.155Z,45.7
2017-08-07T03:42:49.283Z,45.7
2017-08-07T03:43:50.725Z,45.8
2017-08-07T03:44:52.526Z,45.8
2017-08-07T03:45:54.657Z,45.6
2017-08-07T03:46:56.789Z,45.7
2017-08-07T03:47:58.588Z,45.6
2017-08-07T03:49:00.719Z,45.8
2017-08-07T03:50:02.521Z,45.7
2017-08-07T03:51:04.649Z,45.8
2017-08-07T03:52:06.097Z,45.8
2017-08-07T03:53:07.873Z,45.6
2017-08-07T03:54:09.007Z,45.7
2017-08-07T03:55:10.806Z,45.8
2017-08-07T03:56:12.252Z,45.7
2017-08-07T03:57:14.383Z,45.8
2017-08-07T03:58:16.158Z,45.7
2017-08-07T03:59:17.957Z,45.8
2017-08-07T04:00:20.093Z,45.6
2017-08-07T04:01:21.892Z,46.1
2017-08-07T04:02:23.689Z,45.6
2017-08-07T04:03:25.188Z,45.4
2017-08-07T04:04:27.319Z,45.7
2017-08-07T04:05:29.447Z,45.8
2017-08-07T04:06:31.222Z,45.7
2017-08-07T04:07:33.351Z,45.8
2017-08-07T04:08:35.500Z,45.4
2017-08-07T04:09:37.623Z,46
2017-08-07T04:10:39.753Z,45.7
2017-08-07T04:11:41.200Z,45.7
2017-08-07T04:12:43.003Z,45.7
2017-08-07T04:13:44.119Z,45.7
2017-08-07T04:14:46.252Z,45.7
2017-08-07T04:15:48.384Z,45.5
2017-08-07T04:16:49.854Z,45.5
2017-08-07T04:17:51.302Z,45.6
2017-08-07T04:18:53.431Z,45.6
2017-08-07T04:19:55.233Z,45.5
2017-08-07T04:20:57.004Z,45.6
2017-08-07T04:21:59.135Z,45.5
2017-08-07T04:23:01.264Z,45.8
2017-08-07T04:24:02.730Z,45.8
2017-08-07T04:25:04.857Z,45.7
2017-08-07T04:26:06.302Z,45.8
2017-08-07T04:27:08.434Z,45.5
2017-08-07T04:28:10.207Z,45.5
2017-08-07T04:29:12.008Z,45.9
2017-08-07T04:30:14.140Z,45.6
2017-08-07T04:31:15.937Z,45.7
2017-08-07T04:32:17.398Z,45.4
2017-08-07T04:33:19.196Z,45.6
2017-08-07T04:34:20.997Z,45.8
2017-08-07T04:35:22.798Z,45.8
2017-08-07T04:36:24.932Z,45.3
2017-08-07T04:37:26.701Z,45.6
2017-08-07T04:38:28.834Z,45.4
2017-08-07T04:39:30.631Z,45.7
2017-08-07T04:40:32.765Z,45.5
2017-08-07T04:41:34.231Z,45.4
2017-08-07T04:42:36.034Z,45.5
2017-08-07T04:43:37.496Z,45.4
2017-08-07T04:44:38.936Z,45.5
2017-08-07T04:45:41.066Z,45.6
2017-08-07T04:46:43.198Z,45.4
2017-08-07T04:47:44.638Z,45.5
2017-08-07T04:48:45.778Z,45.6
2017-08-07T04:49:46.554Z,45.5
2017-08-07T04:50:48.356Z,45.6
2017-08-07T04:51:49.826Z,45.3
2017-08-07T04:52:51.632Z,45.5
2017-08-07T04:53:53.078Z,45.4
2017-08-07T04:54:55.263Z,45.4
2017-08-07T04:55:57.066Z,45.5
2017-08-07T04:56:58.530Z,45.5
2017-08-07T04:57:59.668Z,45.5
2017-08-07T04:59:01.465Z,45.5
2017-08-07T05:00:03.266Z,45.5
2017-08-07T05:01:05.067Z,45.5
2017-08-07T05:02:07.199Z,45.3
2017-08-07T05:03:09.334Z,45.4
2017-08-07T05:04:11.464Z,45.1
2017-08-07T05:05:13.265Z,44.7
2017-08-07T05:06:14.382Z,44.5
2017-08-07T05:07:16.180Z,44.5
2017-08-07T05:08:17.316Z,44.4
2017-08-07T05:09:19.449Z,44.2
2017-08-07T05:10:21.229Z,44.1
2017-08-07T05:11:23.032Z,44.1
2017-08-07T05:12:25.169Z,43.9
2017-08-07T05:13:26.635Z,43.9
2017-08-07T05:14:28.436Z,43.8
2017-08-07T05:15:30.565Z,44
2017-08-07T05:16:32.364Z,43.6
2017-08-07T05:17:34.494Z,44
2017-08-07T05:18:36.295Z,44
2017-08-07T05:19:38.075Z,43.8
2017-08-07T05:20:40.310Z,43.8
2017-08-07T05:21:42.111Z,43.8
2017-08-07T05:22:43.906Z,43.7
2017-08-07T05:23:45.716Z,44
2017-08-07T05:24:47.500Z,44
2017-08-07T05:25:49.633Z,43.8
2017-08-07T05:26:51.764Z,44.1
2017-08-07T05:27:53.544Z,43.9
2017-08-07T05:28:55.012Z,44.3
2017-08-07T05:29:57.150Z,43.9
2017-08-07T05:30:58.595Z,43.6
2017-08-07T05:32:00.729Z,43.9
2017-08-07T05:33:02.198Z,43.9
2017-08-07T05:34:04.332Z,43.6
2017-08-07T05:35:06.130Z,44.3
2017-08-07T05:36:08.265Z,43.7
2017-08-07T05:37:10.062Z,43.7
2017-08-07T05:38:11.513Z,43.9
2017-08-07T05:39:12.962Z,44.1
2017-08-07T05:40:14.424Z,43.8
2017-08-07T05:41:16.604Z,44.3
2017-08-07T05:42:18.738Z,44.1
2017-08-07T05:43:20.538Z,44.1
2017-08-07T05:44:21.320Z,43.9
2017-08-07T05:45:23.451Z,43.9
2017-08-07T05:46:25.249Z,44.1
2017-08-07T05:47:26.713Z,43.9
2017-08-07T05:48:28.845Z,44.2
2017-08-07T05:49:30.284Z,43.9
2017-08-07T05:50:32.416Z,44.1
2017-08-07T05:51:33.880Z,44.1
2017-08-07T05:52:35.663Z,44
2017-08-07T05:53:37.470Z,44
2017-08-07T05:54:39.601Z,43.9
2017-08-07T05:55:41.379Z,43.9
2017-08-07T05:56:43.180Z,44.2
2017-08-07T05:57:45.312Z,44
2017-08-07T05:58:47.444Z,44.1
2017-08-07T05:59:49.581Z,43.6
2017-08-07T06:00:51.047Z,44.1
2017-08-07T06:01:52.845Z,44.2
2017-08-07T06:02:54.645Z,44.3
2017-08-07T06:03:56.776Z,43.7
2017-08-07T06:04:58.245Z,43.8
2017-08-07T06:06:00.376Z,44
2017-08-07T06:07:02.178Z,43.7
2017-08-07T06:08:04.309Z,43.6
2017-08-07T06:09:05.756Z,44
2017-08-07T06:10:07.557Z,44.2
2017-08-07T06:11:09.687Z,44.1
2017-08-07T06:12:11.156Z,44.2
2017-08-07T06:13:13.291Z,44.2
2017-08-07T06:14:15.091Z,44
2017-08-07T06:15:16.893Z,43.6
2017-08-07T06:16:19.038Z,43.8
2017-08-07T06:17:21.172Z,43.9
2017-08-07T06:18:23.306Z,44.1
2017-08-07T06:19:25.085Z,43.5
2017-08-07T06:20:26.203Z,43.6
2017-08-07T06:21:28.004Z,44
2017-08-07T06:22:29.807Z,43.6
2017-08-07T06:23:31.605Z,43.9
2017-08-07T06:24:33.735Z,44.2
2017-08-07T06:25:35.867Z,44.1
2017-08-07T06:26:38.001Z,44
2017-08-07T06:27:40.134Z,44.1
2017-08-07T06:28:41.936Z,44.2
2017-08-07T06:29:43.738Z,43.9
2017-08-07T06:30:45.540Z,44.1
2017-08-07T06:31:47.672Z,44
2017-08-07T06:32:49.804Z,43.9
2017-08-07T06:33:50.922Z,43.7
2017-08-07T06:34:52.723Z,44
2017-08-07T06:35:54.854Z,43.8
2017-08-07T06:36:56.654Z,44
2017-08-07T06:37:58.785Z,43.9
2017-08-07T06:39:00.913Z,43.9
2017-08-07T06:40:03.043Z,44.1
2017-08-07T06:41:04.840Z,43.6
2017-08-07T06:42:06.314Z,43.9
2017-08-07T06:43:08.542Z,44.2
2017-08-07T06:44:10.008Z,44.3
2017-08-07T06:45:11.806Z,43.7
2017-08-07T06:46:13.943Z,43.6
2017-08-07T06:47:16.072Z,44
2017-08-07T06:48:18.205Z,43.9
2017-08-07T06:49:20.343Z,44.1
2017-08-07T06:50:22.140Z,44
2017-08-07T06:51:23.943Z,44.2
2017-08-07T06:52:25.059Z,43.9
2017-08-07T06:53:26.858Z,44
2017-08-07T06:54:28.987Z,43.9
2017-08-07T06:55:30.440Z,43.8
2017-08-07T06:56:31.885Z,43.8
2017-08-07T06:57:33.682Z,43.9
2017-08-07T06:58:35.485Z,43.8
2017-08-07T06:59:37.285Z,43.9
2017-08-07T07:00:39.060Z,43.9
2017-08-07T07:01:40.860Z,43.9
2017-08-07T07:02:42.691Z,43.9
2017-08-07T07:03:44.824Z,43.9
2017-08-07T07:04:46.277Z,43.9
2017-08-07T07:05:48.408Z,43.9
2017-08-07T07:06:50.189Z,44
2017-08-07T07:07:51.968Z,44
2017-08-07T07:08:53.742Z,44
2017-08-07T07:09:55.549Z,43.8
2017-08-07T07:10:57.356Z,43.9
2017-08-07T07:11:59.488Z,43.8
2017-08-07T07:13:01.286Z,43.8
2017-08-07T07:14:03.073Z,44
2017-08-07T07:15:05.219Z,43.9
2017-08-07T07:16:07.349Z,43.7
2017-08-07T07:17:09.481Z,44.1
2017-08-07T07:18:11.281Z,43.7
2017-08-07T07:19:13.084Z,43.9
2017-08-07T07:20:15.218Z,44
2017-08-07T07:21:17.019Z,43.7
2017-08-07T07:22:18.818Z,43.9
2017-08-07T07:23:20.598Z,43.6
2017-08-07T07:24:22.048Z,43.7
2017-08-07T07:25:23.845Z,43.9
2017-08-07T07:26:25.644Z,44
2017-08-07T07:27:27.448Z,43.8
2017-08-07T07:28:29.258Z,43.7
2017-08-07T07:29:31.056Z,43.7
2017-08-07T07:30:33.190Z,44
2017-08-07T07:31:34.660Z,44.1
2017-08-07T07:32:36.444Z,44.1
2017-08-07T07:33:38.573Z,44.4
2017-08-07T07:34:40.732Z,44.2
2017-08-07T07:35:42.847Z,44
2017-08-07T07:36:44.649Z,44.3
2017-08-07T07:37:46.782Z,44
2017-08-07T07:38:48.583Z,44.4
2017-08-07T07:39:50.719Z,44.3
2017-08-07T07:40:52.522Z,44.1
2017-08-07T07:41:54.300Z,44
2017-08-07T07:42:56.101Z,44
2017-08-07T07:43:57.901Z,44.3
2017-08-07T07:45:00.033Z,44
2017-08-07T07:46:01.836Z,43.7
2017-08-07T07:47:03.285Z,44
2017-08-07T07:48:05.086Z,44.2
2017-08-07T07:49:06.602Z,44
2017-08-07T07:50:08.046Z,44.2
2017-08-07T07:51:09.824Z,44.2
2017-08-07T07:52:11.954Z,44.5
2017-08-07T07:53:14.100Z,44.1
2017-08-07T07:54:15.568Z,43.9
2017-08-07T07:55:17.368Z,44.3
2017-08-07T07:56:19.145Z,44.3
2017-08-07T07:57:20.620Z,44.1
2017-08-07T07:58:22.402Z,44.2
2017-08-07T07:59:24.534Z,43.8
2017-08-07T08:00:26.001Z,44.3
2017-08-07T08:01:27.121Z,44.2
2017-08-07T08:02:29.253Z,44.4
2017-08-07T08:03:30.722Z,44.3
2017-08-07T08:04:32.857Z,44.4
2017-08-07T08:05:34.656Z,44.4
2017-08-07T08:06:36.433Z,44.5
2017-08-07T08:07:38.562Z,44.4
2017-08-07T08:08:40.045Z,44.6
2017-08-07T08:09:41.155Z,44.4
2017-08-07T08:10:42.955Z,44.4
2017-08-07T08:11:44.424Z,44.3
2017-08-07T08:12:46.558Z,44.5
2017-08-07T08:13:48.028Z,44.3
2017-08-07T08:14:49.527Z,44.6
2017-08-07T08:15:51.658Z,44.2
2017-08-07T08:16:53.110Z,44.2
2017-08-07T08:17:54.251Z,44.3
2017-08-07T08:18:56.053Z,44.5
2017-08-07T08:19:57.498Z,44.6
2017-08-07T08:20:59.302Z,44.4
2017-08-07T08:22:00.779Z,44.3
2017-08-07T08:23:02.257Z,44.5
2017-08-07T08:24:04.039Z,44.3
2017-08-07T08:25:06.177Z,44.3
2017-08-07T08:26:08.306Z,44.3
2017-08-07T08:27:10.111Z,44.3
2017-08-07T08:28:11.915Z,44.2
2017-08-07T08:29:13.381Z,44.3
2017-08-07T08:30:15.160Z,44.3
2017-08-07T08:31:16.942Z,44.3
2017-08-07T08:32:18.742Z,44.5
2017-08-07T08:33:20.519Z,44.2
2017-08-07T08:34:22.297Z,44.4
2017-08-07T08:35:23.741Z,44.3
2017-08-07T08:36:25.876Z,44.3
2017-08-07T08:37:27.674Z,44.6
2017-08-07T08:38:29.121Z,44.3
2017-08-07T08:39:30.924Z,44.1
2017-08-07T08:40:32.729Z,44.3
2017-08-07T08:41:34.865Z,44.3
2017-08-07T08:42:37.000Z,44.4
2017-08-07T08:43:39.131Z,44.2
2017-08-07T08:44:41.269Z,44.5
2017-08-07T08:45:43.063Z,44.2
2017-08-07T08:46:45.254Z,44.8
2017-08-07T08:47:47.388Z,44.2
2017-08-07T08:48:49.188Z,44.2
2017-08-07T08:49:50.965Z,44.3
2017-08-07T08:50:53.097Z,44.5
2017-08-07T08:51:54.542Z,44.4
2017-08-07T08:52:56.680Z,44.3
2017-08-07T08:53:58.486Z,44.4
2017-08-07T08:55:00.288Z,44.3
2017-08-07T08:56:02.418Z,44.5
2017-08-07T08:57:04.220Z,44.4
2017-08-07T08:58:05.663Z,44.3
2017-08-07T08:59:07.811Z,44.4
2017-08-07T09:00:09.600Z,44.6
2017-08-07T09:01:11.834Z,44.4
2017-08-07T09:02:13.279Z,44.8
2017-08-07T09:03:14.746Z,44.5
2017-08-07T09:04:16.881Z,44.3
2017-08-07T09:05:19.014Z,44.3
2017-08-07T09:06:20.811Z,44.5
2017-08-07T09:07:22.615Z,44.5
2017-08-07T09:08:24.746Z,44.6
2017-08-07T09:09:26.541Z,44.4
2017-08-07T09:10:28.683Z,44.6
2017-08-07T09:11:30.817Z,44.6
2017-08-07T09:12:32.603Z,44.7
2017-08-07T09:13:34.053Z,44.6
2017-08-07T09:14:35.851Z,44.7
2017-08-07T09:15:37.983Z,44.4
2017-08-07T09:16:39.784Z,44.8
2017-08-07T09:17:41.917Z,44.7
2017-08-07T09:18:42.704Z,44.5
2017-08-07T09:19:44.504Z,44.5
2017-08-07T09:20:46.635Z,44.5
2017-08-07T09:21:48.418Z,44.8
2017-08-07T09:22:50.217Z,44.6
2017-08-07T09:23:52.021Z,44.5
2017-08-07T09:24:53.484Z,44.8
2017-08-07T09:25:55.262Z,44.5
2017-08-07T09:26:57.063Z,44.6
2017-08-07T09:27:58.845Z,44.8
2017-08-07T09:29:00.287Z,44.5
2017-08-07T09:30:01.778Z,44.8
2017-08-07T09:31:03.577Z,44.5
2017-08-07T09:32:05.356Z,44.5
2017-08-07T09:33:07.486Z,44.7
2017-08-07T09:34:09.284Z,44.5
2017-08-07T09:35:11.442Z,44.7
2017-08-07T09:36:13.249Z,44.8
2017-08-07T09:37:15.052Z,44.6
2017-08-07T09:38:15.837Z,44.8
2017-08-07T09:39:17.704Z,44.8
2017-08-07T09:40:19.853Z,44.6
2017-08-07T09:41:21.299Z,44.8
2017-08-07T09:42:22.750Z,44.6
2017-08-07T09:43:24.550Z,44.6
2017-08-07T09:44:26.352Z,44.7
2017-08-07T09:45:27.798Z,44.8
2017-08-07T09:46:29.928Z,44.7
2017-08-07T09:47:31.402Z,44.7
2017-08-07T09:48:33.528Z,44.7
2017-08-07T09:49:35.326Z,44.6
2017-08-07T09:50:37.130Z,44.7
2017-08-07T09:51:39.263Z,44.7
2017-08-07T09:52:41.411Z,44.8
2017-08-07T09:53:43.198Z,44.5
2017-08-07T09:54:44.980Z,44.5
2017-08-07T09:55:46.767Z,44.7
2017-08-07T09:56:48.550Z,44.5
2017-08-07T09:57:50.683Z,44.8
2017-08-07T09:58:52.129Z,44.6
2017-08-07T09:59:54.262Z,44.6
2017-08-07T10:00:56.044Z,44.5
2017-08-07T10:01:57.848Z,44.4
2017-08-07T10:02:59.975Z,44.7
2017-08-07T10:04:01.787Z,44.6
2017-08-07T10:05:03.255Z,44.5
2017-08-07T10:06:05.388Z,44.4
2017-08-07T10:07:06.836Z,44.6
2017-08-07T10:08:08.313Z,44.5
2017-08-07T10:09:10.101Z,44.5
2017-08-07T10:10:11.548Z,44.5
2017-08-07T10:11:13.349Z,44.5
2017-08-07T10:12:15.154Z,44.3
2017-08-07T10:13:16.599Z,44.3
2017-08-07T10:14:18.730Z,44.4
2017-08-07T10:15:20.530Z,44.4
2017-08-07T10:16:22.330Z,44.5
2017-08-07T10:17:23.802Z,44.2
2017-08-07T10:18:25.934Z,44.1
2017-08-07T10:19:28.067Z,44.5
2017-08-07T10:20:30.199Z,44.2
2017-08-07T10:21:31.646Z,44.4
2017-08-07T10:22:33.777Z,44.5
2017-08-07T10:23:35.911Z,44.2
2017-08-07T10:24:37.710Z,44.1
2017-08-07T10:25:39.488Z,44.3
2017-08-07T10:26:41.290Z,44.4
2017-08-07T10:27:43.425Z,44.3
2017-08-07T10:28:45.233Z,44.1
2017-08-07T10:29:46.697Z,44.5
2017-08-07T10:30:48.827Z,44.3
2017-08-07T10:31:50.295Z,44.3
2017-08-07T10:32:52.173Z,44.3
2017-08-07T10:33:53.641Z,44.3
2017-08-07T10:34:55.775Z,44.6
2017-08-07T10:35:57.580Z,44.6
2017-08-07T10:36:59.713Z,44.1
2017-08-07T10:38:01.518Z,44.2
2017-08-07T10:39:03.317Z,44.1
2017-08-07T10:40:05.116Z,44.2
2017-08-07T10:41:06.915Z,44.4
2017-08-07T10:42:09.053Z,44.2
2017-08-07T10:43:10.850Z,44
2017-08-07T10:44:12.983Z,44
2017-08-07T10:45:14.456Z,44.1
2017-08-07T10:46:16.593Z,43.7
2017-08-07T10:47:18.391Z,43.9
2017-08-07T10:48:20.191Z,44
2017-08-07T10:49:21.644Z,43.7
2017-08-07T10:50:23.772Z,43.9
2017-08-07T10:51:25.905Z,43.7
2017-08-07T10:52:27.680Z,44
2017-08-07T10:53:29.125Z,44.3
2017-08-07T10:54:30.243Z,44.1
2017-08-07T10:55:32.048Z,43.8
2017-08-07T10:56:33.524Z,44.2
2017-08-07T10:57:35.651Z,44.1
2017-08-07T10:58:37.780Z,44.1
2017-08-07T10:59:38.921Z,44.3
2017-08-07T11:00:40.391Z,44.1
2017-08-07T11:01:42.524Z,44.3
2017-08-07T11:02:43.971Z,44.2
2017-08-07T11:03:45.874Z,43.9
2017-08-07T11:04:47.674Z,44.2
2017-08-07T11:05:49.809Z,44.1
2017-08-07T11:06:51.606Z,44.3
2017-08-07T11:07:52.743Z,44.2
2017-08-07T11:08:54.185Z,44.2
2017-08-07T11:09:55.988Z,44.1
2017-08-07T11:10:58.124Z,44.2
2017-08-07T11:11:59.585Z,44.1
2017-08-07T11:13:01.361Z,44.1
2017-08-07T11:14:03.492Z,43.7
2017-08-07T11:15:05.277Z,43.8
2017-08-07T11:16:06.053Z,43.8
2017-08-07T11:17:07.831Z,43.8
2017-08-07T11:18:09.634Z,43.9
2017-08-07T11:19:11.765Z,44.3
2017-08-07T11:20:13.564Z,44.4
2017-08-07T11:21:15.364Z,43.8
2017-08-07T11:22:17.163Z,44.2
2017-08-07T11:23:18.603Z,44.3
2017-08-07T11:24:20.500Z,44
2017-08-07T11:25:22.315Z,44.1
2017-08-07T11:26:24.446Z,44.1
2017-08-07T11:27:26.581Z,44
2017-08-07T11:28:28.713Z,44.1
2017-08-07T11:29:30.844Z,43.9
2017-08-07T11:30:32.981Z,43.9
2017-08-07T11:31:34.761Z,43.6
2017-08-07T11:32:36.564Z,43.7
2017-08-07T11:33:38.697Z,44
2017-08-07T11:34:40.514Z,43.7
2017-08-07T11:35:42.650Z,44.1
2017-08-07T11:36:44.447Z,43.7
2017-08-07T11:37:45.570Z,43.9
2017-08-07T11:38:47.376Z,44.3
2017-08-07T11:39:49.608Z,43.8
2017-08-07T11:40:51.409Z,44.3
2017-08-07T11:41:53.224Z,43.7
2017-08-07T11:42:55.362Z,44
2017-08-07T11:43:57.170Z,43.9
2017-08-07T11:44:59.301Z,43.9
2017-08-07T11:46:01.096Z,44.2
2017-08-07T11:47:02.543Z,43.9
2017-08-07T11:48:03.988Z,43.7
2017-08-07T11:49:05.440Z,43.9
2017-08-07T11:50:06.914Z,44
2017-08-07T11:51:08.710Z,44.1
2017-08-07T11:52:09.823Z,43.7
2017-08-07T11:53:11.294Z,44
2017-08-07T11:54:13.096Z,44
2017-08-07T11:55:15.230Z,43.8
2017-08-07T11:56:17.365Z,43.9
2017-08-07T11:57:19.500Z,43.8
2017-08-07T11:58:21.301Z,44.1
2017-08-07T11:59:23.432Z,43.8
2017-08-07T12:00:25.332Z,44
2017-08-07T12:01:26.778Z,44
2017-08-07T12:02:28.578Z,43.6
2017-08-07T12:03:30.050Z,44.1
2017-08-07T12:04:32.181Z,43.6
2017-08-07T12:05:34.313Z,43.7
2017-08-07T12:06:36.112Z,43.8
2017-08-07T12:07:38.243Z,43.8
2017-08-07T12:08:40.377Z,43.6
2017-08-07T12:09:42.511Z,43.9
2017-08-07T12:10:44.737Z,44.1
2017-08-07T12:11:45.858Z,43.9
2017-08-07T12:12:47.992Z,44.1
2017-08-07T12:13:50.126Z,43.9
2017-08-07T12:14:51.903Z,43.9
2017-08-07T12:15:54.034Z,44.2
2017-08-07T12:16:55.835Z,43.9
2017-08-07T12:17:57.633Z,44
2017-08-07T12:18:59.767Z,43.9
2017-08-07T12:20:00.904Z,43.9
2017-08-07T12:21:03.043Z,43.9
2017-08-07T12:22:04.843Z,44
2017-08-07T12:23:06.288Z,43.8
2017-08-07T12:24:08.424Z,43.9
2017-08-07T12:25:10.560Z,43.8
2017-08-07T12:26:12.690Z,43.9
2017-08-07T12:27:14.489Z,43.9
2017-08-07T12:28:16.295Z,43.8
2017-08-07T12:29:18.094Z,44.2
2017-08-07T12:30:19.551Z,43.6
2017-08-07T12:31:21.683Z,43.7
2017-08-07T12:32:23.481Z,43.6
2017-08-07T12:33:25.279Z,43.7
2017-08-07T12:34:26.734Z,43.9
2017-08-07T12:35:28.516Z,43.8
2017-08-07T12:36:29.986Z,43.7
2017-08-07T12:37:32.144Z,43.7
2017-08-07T12:38:33.913Z,43.7
2017-08-07T12:39:36.045Z,43.8
2017-08-07T12:40:38.175Z,43.8
2017-08-07T12:41:39.974Z,43.9
2017-08-07T12:42:41.421Z,43.9
2017-08-07T12:43:43.219Z,43.8
2017-08-07T12:44:45.012Z,43.9
2017-08-07T12:45:46.817Z,43.9
2017-08-07T12:46:48.618Z,43.6
2017-08-07T12:47:50.400Z,44.2
2017-08-07T12:48:52.200Z,44.1
2017-08-07T12:49:54.000Z,43.8
2017-08-07T12:50:55.803Z,43.9
2017-08-07T12:51:57.253Z,43.9
2017-08-07T12:52:59.054Z,43.9
2017-08-07T12:54:01.186Z,44.1
2017-08-07T12:55:02.988Z,44
2017-08-07T12:56:04.788Z,43.6
2017-08-07T12:57:06.245Z,44.1
2017-08-07T12:58:07.379Z,43.8
2017-08-07T12:59:09.183Z,44
2017-08-07T13:00:10.962Z,43.6
2017-08-07T13:01:12.745Z,44
2017-08-07T13:02:14.539Z,43.8
2017-08-07T13:03:16.337Z,44
2017-08-07T13:04:18.143Z,44.1
2017-08-07T13:05:20.276Z,43.7
2017-08-07T13:06:22.075Z,43.8
2017-08-07T13:07:23.544Z,43.6
2017-08-07T13:08:24.657Z,43.5
2017-08-07T13:09:26.790Z,44.2
2017-08-07T13:10:28.926Z,43.6
2017-08-07T13:11:31.062Z,43.9
2017-08-07T13:12:33.190Z,44
2017-08-07T13:13:34.307Z,44
2017-08-07T13:14:35.754Z,43.9
2017-08-07T13:15:37.557Z,44
2017-08-07T13:16:39.336Z,43.6
2017-08-07T13:17:40.541Z,44
2017-08-07T13:18:41.989Z,43.9
2017-08-07T13:19:43.790Z,43.9
2017-08-07T13:20:45.944Z,43.9
2017-08-07T13:21:48.078Z,44.3
2017-08-07T13:22:49.850Z,43.8
2017-08-07T13:23:50.966Z,43.8
2017-08-07T13:24:52.743Z,44
2017-08-07T13:25:54.542Z,44.1
2017-08-07T13:26:56.676Z,44.2
2017-08-07T13:27:58.130Z,43.8
2017-08-07T13:28:59.590Z,43.7
2017-08-07T13:30:01.039Z,43.9
2017-08-07T13:31:03.177Z,44
2017-08-07T13:32:04.637Z,44
2017-08-07T13:33:06.441Z,44
2017-08-07T13:34:08.571Z,43.8
2017-08-07T13:35:09.690Z,43.9
2017-08-07T13:36:11.491Z,43.9
2017-08-07T13:37:13.271Z,44
2017-08-07T13:38:14.738Z,44.3
2017-08-07T13:39:16.872Z,44.2
2017-08-07T13:40:19.006Z,43.8
2017-08-07T13:41:20.147Z,44.2
2017-08-07T13:42:22.276Z,43.6
2017-08-07T13:43:24.082Z,44.1
2017-08-07T13:44:25.884Z,43.6
2017-08-07T13:45:27.687Z,43.4
2017-08-07T13:46:29.817Z,43.9
2017-08-07T13:47:31.986Z,43.6
2017-08-07T13:48:34.125Z,43.9
2017-08-07T13:49:35.589Z,43.5